| time (UTC) | temp F | wind direction | speed MPH | gust MPH | rain 1hr in | rain 24hr in | rain mn in | humidity % | barometer mb |
| 20260831183002 | 76 | 0 | 2.0 | 5.0 | 0.00 | 0.00 | 0.00 | 73 | 1025.8 |
| 20260831175459 | 77 | 0 | 0.0 | 3.0 | 0.00 | 0.00 | 0.00 | 73 | 1025.6 |
| 20260831160956 | 83 | 0 | 1.0 | 7.0 | 0.00 | 0.00 | 0.00 | 64 | 1025.0 |
| 20260831155017 | 84 | 0 | 1.0 | 7.0 | 0.00 | 0.00 | 0.00 | 61 | 1025.2 |
| 20260831154004 | 84 | 0 | 3.0 | 9.0 | 0.00 | 0.00 | 0.00 | 60 | 1025.1 |
| 20260831151504 | 86 | 0 | 2.0 | 9.0 | 0.00 | 0.00 | 0.00 | 53 | 1025.1 |
| 20260831145444 | 87 | 0 | 5.0 | 9.0 | 0.00 | 0.00 | 0.00 | 46 | 1025.2 |
| 20260831143945 | 87 | 0 | 3.0 | 11.0 | 0.00 | 0.00 | 0.00 | 46 | 1025.2 |
| 20260831132934 | 88 | 0 | 2.0 | 9.0 | 0.00 | 0.00 | 0.00 | 47 | 1025.8 |
| 20260831131935 | 88 | 0 | 5.0 | 11.0 | 0.00 | 0.00 | 0.00 | 48 | 1025.8 |
| 20260831120515 | 87 | 0 | 1.0 | 11.0 | 0.00 | 0.00 | 0.00 | 53 | 1026.6 |
| 20260831114341 | 87 | 0 | 4.0 | 10.0 | 0.00 | 0.00 | 0.00 | 53 | 1026.9 |
| 20260831112905 | 87 | 0 | 4.0 | 9.0 | 0.00 | 0.00 | 0.00 | 54 | 1026.9 |
| 20260831112353 | 87 | 0 | 2.0 | 9.0 | 0.00 | 0.00 | 0.00 | 54 | 1027.0 |
| 20260831111242 | 87 | 0 | 3.0 | 9.0 | 0.00 | 0.00 | 0.00 | 54 | 1027.0 |
| 20260831105954 | 87 | 0 | 3.0 | 10.0 | 0.00 | 0.00 | 0.00 | 56 | 1027.1 |
| 20260831103813 | 86 | 0 | 5.0 | 9.0 | 0.00 | 0.00 | 0.00 | 56 | 1027.3 |
| 20260831083118 | 82 | 0 | 3.0 | 9.0 | 0.00 | 0.00 | 0.00 | 58 | 1027.5 |
| 20260831072843 | 81 | 0 | 6.0 | 10.0 | 0.00 | 0.00 | 0.00 | 57 | 1027.3 |
| 20260831071513 | 80 | 0 | 2.0 | 11.0 | 0.00 | 0.00 | 0.00 | 60 | 1027.3 |
| 20260831070322 | 79 | 0 | 5.0 | 12.0 | 0.00 | 0.00 | 0.00 | 66 | 1027.3 |
| 20260831063939 | 79 | 0 | 2.0 | 9.0 | 0.00 | 0.00 | 0.00 | 63 | 1027.2 |
| 20260831062641 | 78 | 0 | 1.0 | 3.0 | 0.00 | 0.00 | 0.00 | 70 | 1027.2 |
| 20260831060658 | 78 | 0 | 0.0 | 1.0 | 0.00 | 0.00 | 0.00 | 69 | 1027.1 |